sensor_id;sensor_type;location;lat;lon;timestamp;temperature;humidity
70593;DHT22;58294;42.988;20.338;2023-04-09T00:01:47;128.50;1817.60
70593;DHT22;58294;42.988;20.338;2023-04-09T00:04:13;128.50;1843.20
70593;DHT22;58294;42.988;20.338;2023-04-09T00:06:38;128.40;1817.60
70593;DHT22;58294;42.988;20.338;2023-04-09T00:09:04;128.40;1817.60
70593;DHT22;58294;42.988;20.338;2023-04-09T00:11:30;128.30;1843.20
70593;DHT22;58294;42.988;20.338;2023-04-09T00:13:57;128.30;1817.60
70593;DHT22;58294;42.988;20.338;2023-04-09T00:16:23;128.20;1817.60
70593;DHT22;58294;42.988;20.338;2023-04-09T00:18:48;128.20;1817.60
70593;DHT22;58294;42.988;20.338;2023-04-09T00:21:15;128.10;1817.60
70593;DHT22;58294;42.988;20.338;2023-04-09T00:23:41;128.10;1817.60
70593;DHT22;58294;42.988;20.338;2023-04-09T00:26:07;128.00;1843.20
70593;DHT22;58294;42.988;20.338;2023-04-09T00:28:33;128.00;1843.20
70593;DHT22;58294;42.988;20.338;2023-04-09T00:31:00;128.00;1868.80
70593;DHT22;58294;42.988;20.338;2023-04-09T00:33:26;128.00;1868.80
70593;DHT22;58294;42.988;20.338;2023-04-09T00:35:52;128.00;1868.80
70593;DHT22;58294;42.988;20.338;2023-04-09T00:38:18;128.00;1894.40
70593;DHT22;58294;42.988;20.338;2023-04-09T00:40:50;128.00;1868.80
70593;DHT22;58294;42.988;20.338;2023-04-09T00:43:16;128.00;1868.80
70593;DHT22;58294;42.988;20.338;2023-04-09T00:45:43;128.00;1868.80
70593;DHT22;58294;42.988;20.338;2023-04-09T00:48:11;128.00;1868.80
70593;DHT22;58294;42.988;20.338;2023-04-09T00:50:37;103.30;1843.20
70593;DHT22;58294;42.988;20.338;2023-04-09T00:53:04;103.30;1868.80
70593;DHT22;58294;42.988;20.338;2023-04-09T00:55:30;103.30;1868.80
70593;DHT22;58294;42.988;20.338;2023-04-09T00:57:56;103.30;1817.60
70593;DHT22;58294;42.988;20.338;2023-04-09T01:00:22;103.30;1868.80
70593;DHT22;58294;42.988;20.338;2023-04-09T01:02:48;103.20;1843.20
70593;DHT22;58294;42.988;20.338;2023-04-09T01:05:16;103.30;1843.20
70593;DHT22;58294;42.988;20.338;2023-04-09T01:10:34;103.20;1843.20
70593;DHT22;58294;42.988;20.338;2023-04-09T01:15:47;103.20;1868.80
70593;DHT22;58294;42.988;20.338;2023-04-09T01:18:38;103.20;1868.80
70593;DHT22;58294;42.988;20.338;2023-04-09T01:21:10;103.30;1868.80
70593;DHT22;58294;42.988;20.338;2023-04-09T01:23:57;103.30;1920.00
70593;DHT22;58294;42.988;20.338;2023-04-09T01:29:30;128.00;1920.00
70593;DHT22;58294;42.988;20.338;2023-04-09T01:31:59;128.10;1945.60
70593;DHT22;58294;42.988;20.338;2023-04-09T01:34:27;128.10;1920.00
70593;DHT22;58294;42.988;20.338;2023-04-09T01:36:57;128.20;1920.00
70593;DHT22;58294;42.988;20.338;2023-04-09T01:39:23;128.20;1894.40
70593;DHT22;58294;42.988;20.338;2023-04-09T01:41:49;128.20;1868.80
70593;DHT22;58294;42.988;20.338;2023-04-09T01:44:17;128.10;1894.40
70593;DHT22;58294;42.988;20.338;2023-04-09T01:46:45;128.20;1920.00
70593;DHT22;58294;42.988;20.338;2023-04-09T01:49:11;128.20;1894.40
70593;DHT22;58294;42.988;20.338;2023-04-09T01:51:37;128.20;1868.80
70593;DHT22;58294;42.988;20.338;2023-04-09T01:54:03;128.10;1894.40
70593;DHT22;58294;42.988;20.338;2023-04-09T01:56:44;128.20;1920.00
70593;DHT22;58294;42.988;20.338;2023-04-09T01:59:10;128.20;1894.40
70593;DHT22;58294;42.988;20.338;2023-04-09T02:01:45;128.20;1868.80
70593;DHT22;58294;42.988;20.338;2023-04-09T02:04:46;128.10;1868.80
70593;DHT22;58294;42.988;20.338;2023-04-09T02:07:24;128.10;1868.80
70593;DHT22;58294;42.988;20.338;2023-04-09T02:09:55;128.10;1894.40
70593;DHT22;58294;42.988;20.338;2023-04-09T02:12:23;128.10;1920.00
70593;DHT22;58294;42.988;20.338;2023-04-09T02:14:51;128.10;1920.00
70593;DHT22;58294;42.988;20.338;2023-04-09T02:17:17;128.20;1945.60
70593;DHT22;58294;42.988;20.338;2023-04-09T02:19:45;128.20;1945.60
70593;DHT22;58294;42.988;20.338;2023-04-09T02:22:12;128.30;1945.60
70593;DHT22;58294;42.988;20.338;2023-04-09T02:24:38;128.30;1920.00
70593;DHT22;58294;42.988;20.338;2023-04-09T02:27:05;128.40;1894.40
70593;DHT22;58294;42.988;20.338;2023-04-09T02:29:31;128.40;1920.00
70593;DHT22;58294;42.988;20.338;2023-04-09T02:31:57;128.40;1920.00
70593;DHT22;58294;42.988;20.338;2023-04-09T02:34:23;128.40;1945.60
70593;DHT22;58294;42.988;20.338;2023-04-09T02:36:49;128.40;1945.60
70593;DHT22;58294;42.988;20.338;2023-04-09T02:39:15;128.50;1920.00
70593;DHT22;58294;42.988;20.338;2023-04-09T02:41:40;128.50;1945.60
70593;DHT22;58294;42.988;20.338;2023-04-09T02:44:06;128.50;1945.60
70593;DHT22;58294;42.988;20.338;2023-04-09T02:46:32;128.60;1920.00
70593;DHT22;58294;42.988;20.338;2023-04-09T02:48:58;128.60;1894.40
70593;DHT22;58294;42.988;20.338;2023-04-09T02:51:23;128.60;1945.60
70593;DHT22;58294;42.988;20.338;2023-04-09T02:53:49;128.60;1894.40
70593;DHT22;58294;42.988;20.338;2023-04-09T02:56:15;128.60;1920.00
70593;DHT22;58294;42.988;20.338;2023-04-09T02:58:41;128.60;1920.00
70593;DHT22;58294;42.988;20.338;2023-04-09T03:01:06;128.60;1920.00
70593;DHT22;58294;42.988;20.338;2023-04-09T03:03:32;128.60;1920.00
70593;DHT22;58294;42.988;20.338;2023-04-09T03:05:58;128.70;1868.80
70593;DHT22;58294;42.988;20.338;2023-04-09T03:08:24;128.60;1868.80
70593;DHT22;58294;42.988;20.338;2023-04-09T03:10:49;128.60;1920.00
70593;DHT22;58294;42.988;20.338;2023-04-09T03:13:15;128.50;1894.40
70593;DHT22;58294;42.988;20.338;2023-04-09T03:15:41;128.50;1920.00
70593;DHT22;58294;42.988;20.338;2023-04-09T03:18:07;128.40;1920.00
70593;DHT22;58294;42.988;20.338;2023-04-09T03:20:37;128.30;1894.40
70593;DHT22;58294;42.988;20.338;2023-04-09T03:23:04;128.30;1920.00
70593;DHT22;58294;42.988;20.338;2023-04-09T03:25:29;128.30;1945.60
70593;DHT22;58294;42.988;20.338;2023-04-09T03:27:55;128.30;1945.60
70593;DHT22;58294;42.988;20.338;2023-04-09T03:30:21;128.30;1945.60
70593;DHT22;58294;42.988;20.338;2023-04-09T03:32:46;128.30;1945.60
70593;DHT22;58294;42.988;20.338;2023-04-09T03:35:12;128.30;1945.60
70593;DHT22;58294;42.988;20.338;2023-04-09T03:37:38;128.40;1945.60
70593;DHT22;58294;42.988;20.338;2023-04-09T03:40:04;128.40;1971.20
70593;DHT22;58294;42.988;20.338;2023-04-09T03:42:30;128.50;1971.20
70593;DHT22;58294;42.988;20.338;2023-04-09T03:44:56;128.50;1971.20
70593;DHT22;58294;42.988;20.338;2023-04-09T03:47:22;128.60;1971.20
70593;DHT22;58294;42.988;20.338;2023-04-09T03:49:48;128.60;1971.20
70593;DHT22;58294;42.988;20.338;2023-04-09T03:52:13;128.60;1971.20
70593;DHT22;58294;42.988;20.338;2023-04-09T03:54:39;128.70;1971.20
70593;DHT22;58294;42.988;20.338;2023-04-09T03:57:05;128.70;1945.60
70593;DHT22;58294;42.988;20.338;2023-04-09T03:59:31;128.80;1945.60
70593;DHT22;58294;42.988;20.338;2023-04-09T04:01:56;128.70;1945.60
70593;DHT22;58294;42.988;20.338;2023-04-09T04:04:22;128.70;1945.60
70593;DHT22;58294;42.988;20.338;2023-04-09T04:06:48;128.70;1945.60
70593;DHT22;58294;42.988;20.338;2023-04-09T04:09:13;128.80;1971.20
70593;DHT22;58294;42.988;20.338;2023-04-09T04:11:39;128.80;1945.60
70593;DHT22;58294;42.988;20.338;2023-04-09T04:14:05;128.80;1971.20
70593;DHT22;58294;42.988;20.338;2023-04-09T04:16:31;128.90;1971.20
70593;DHT22;58294;42.988;20.338;2023-04-09T04:18:57;128.90;1945.60
70593;DHT22;58294;42.988;20.338;2023-04-09T04:21:22;128.90;1971.20
70593;DHT22;58294;42.988;20.338;2023-04-09T04:23:48;153.60;1971.20
70593;DHT22;58294;42.988;20.338;2023-04-09T04:26:14;153.60;1945.60
70593;DHT22;58294;42.988;20.338;2023-04-09T04:28:40;153.60;1945.60
70593;DHT22;58294;42.988;20.338;2023-04-09T04:31:10;153.70;1945.60
70593;DHT22;58294;42.988;20.338;2023-04-09T04:33:36;153.70;1945.60
70593;DHT22;58294;42.988;20.338;2023-04-09T04:36:04;153.70;1945.60
70593;DHT22;58294;42.988;20.338;2023-04-09T04:38:30;153.70;1920.00
70593;DHT22;58294;42.988;20.338;2023-04-09T04:40:56;153.70;1945.60
70593;DHT22;58294;42.988;20.338;2023-04-09T04:43:22;153.70;1920.00
70593;DHT22;58294;42.988;20.338;2023-04-09T04:45:47;153.70;1920.00
70593;DHT22;58294;42.988;20.338;2023-04-09T04:48:13;153.70;1945.60
70593;DHT22;58294;42.988;20.338;2023-04-09T04:50:39;153.70;1945.60
70593;DHT22;58294;42.988;20.338;2023-04-09T04:53:05;153.70;1945.60
70593;DHT22;58294;42.988;20.338;2023-04-09T04:55:31;153.70;1945.60
70593;DHT22;58294;42.988;20.338;2023-04-09T04:57:56;153.70;1945.60
70593;DHT22;58294;42.988;20.338;2023-04-09T05:00:22;153.70;1971.20
70593;DHT22;58294;42.988;20.338;2023-04-09T05:02:48;153.70;1945.60
70593;DHT22;58294;42.988;20.338;2023-04-09T05:05:13;153.70;1945.60
70593;DHT22;58294;42.988;20.338;2023-04-09T05:07:39;153.70;1945.60
70593;DHT22;58294;42.988;20.338;2023-04-09T05:10:06;153.70;1971.20
70593;DHT22;58294;42.988;20.338;2023-04-09T05:12:32;153.80;1920.00
70593;DHT22;58294;42.988;20.338;2023-04-09T05:14:57;153.80;1945.60
70593;DHT22;58294;42.988;20.338;2023-04-09T05:17:23;153.80;1971.20
70593;DHT22;58294;42.988;20.338;2023-04-09T05:19:52;153.80;1971.20
70593;DHT22;58294;42.988;20.338;2023-04-09T05:22:18;153.80;1945.60
70593;DHT22;58294;42.988;20.338;2023-04-09T05:24:44;153.80;1945.60
70593;DHT22;58294;42.988;20.338;2023-04-09T05:27:10;153.80;1971.20
70593;DHT22;58294;42.988;20.338;2023-04-09T05:29:36;153.90;1971.20
70593;DHT22;58294;42.988;20.338;2023-04-09T05:32:02;153.90;1971.20
70593;DHT22;58294;42.988;20.338;2023-04-09T05:34:28;153.90;1945.60
70593;DHT22;58294;42.988;20.338;2023-04-09T05:36:54;153.90;1971.20
70593;DHT22;58294;42.988;20.338;2023-04-09T05:39:20;153.90;1945.60
70593;DHT22;58294;42.988;20.338;2023-04-09T05:41:45;153.90;1945.60
70593;DHT22;58294;42.988;20.338;2023-04-09T05:44:11;153.90;1971.20
70593;DHT22;58294;42.988;20.338;2023-04-09T05:46:37;153.90;1945.60
70593;DHT22;58294;42.988;20.338;2023-04-09T05:49:03;153.90;1971.20
70593;DHT22;58294;42.988;20.338;2023-04-09T05:51:29;154.00;1971.20
70593;DHT22;58294;42.988;20.338;2023-04-09T05:53:55;154.00;1996.80
70593;DHT22;58294;42.988;20.338;2023-04-09T05:56:21;154.00;1971.20
70593;DHT22;58294;42.988;20.338;2023-04-09T05:58:50;154.00;1996.80
70593;DHT22;58294;42.988;20.338;2023-04-09T06:01:15;154.00;1996.80
70593;DHT22;58294;42.988;20.338;2023-04-09T06:03:42;154.10;1996.80
70593;DHT22;58294;42.988;20.338;2023-04-09T06:06:07;154.20;1996.80
70593;DHT22;58294;42.988;20.338;2023-04-09T06:08:33;154.20;1996.80
70593;DHT22;58294;42.988;20.338;2023-04-09T06:10:59;154.30;1945.60
70593;DHT22;58294;42.988;20.338;2023-04-09T06:13:25;154.30;1996.80
70593;DHT22;58294;42.988;20.338;2023-04-09T06:15:51;154.40;1996.80
70593;DHT22;58294;42.988;20.338;2023-04-09T06:18:17;154.50;1971.20
70593;DHT22;58294;42.988;20.338;2023-04-09T06:20:43;154.50;1996.80
70593;DHT22;58294;42.988;20.338;2023-04-09T06:23:08;179.20;1996.80
70593;DHT22;58294;42.988;20.338;2023-04-09T06:25:34;179.20;1996.80
70593;DHT22;58294;42.988;20.338;2023-04-09T06:28:01;179.30;1996.80
70593;DHT22;58294;42.988;20.338;2023-04-09T06:30:27;179.40;1971.20
70593;DHT22;58294;42.988;20.338;2023-04-09T06:32:53;179.40;1971.20
70593;DHT22;58294;42.988;20.338;2023-04-09T06:35:19;179.40;1971.20
70593;DHT22;58294;42.988;20.338;2023-04-09T06:37:45;179.50;1996.80
70593;DHT22;58294;42.988;20.338;2023-04-09T06:40:11;179.50;1971.20
70593;DHT22;58294;42.988;20.338;2023-04-09T06:42:37;179.60;1971.20
70593;DHT22;58294;42.988;20.338;2023-04-09T06:45:03;179.60;1945.60
70593;DHT22;58294;42.988;20.338;2023-04-09T06:47:33;179.60;1920.00
70593;DHT22;58294;42.988;20.338;2023-04-09T06:50:00;179.60;1971.20
70593;DHT22;58294;42.988;20.338;2023-04-09T06:52:25;179.60;1971.20
70593;DHT22;58294;42.988;20.338;2023-04-09T06:54:51;179.70;1971.20
70593;DHT22;58294;42.988;20.338;2023-04-09T06:57:17;179.70;1945.60
70593;DHT22;58294;42.988;20.338;2023-04-09T06:59:43;179.80;1971.20
70593;DHT22;58294;42.988;20.338;2023-04-09T07:02:09;179.80;1945.60
70593;DHT22;58294;42.988;20.338;2023-04-09T07:04:35;179.80;1971.20
70593;DHT22;58294;42.988;20.338;2023-04-09T07:07:00;179.80;1945.60
70593;DHT22;58294;42.988;20.338;2023-04-09T07:09:26;179.80;1920.00
70593;DHT22;58294;42.988;20.338;2023-04-09T07:11:52;179.80;1945.60
70593;DHT22;58294;42.988;20.338;2023-04-09T07:14:18;179.80;1971.20
70593;DHT22;58294;42.988;20.338;2023-04-09T07:16:43;179.90;1971.20
70593;DHT22;58294;42.988;20.338;2023-04-09T07:19:11;179.90;1971.20
70593;DHT22;58294;42.988;20.338;2023-04-09T07:21:37;180.00;1920.00
70593;DHT22;58294;42.988;20.338;2023-04-09T07:24:03;179.90;1920.00
70593;DHT22;58294;42.988;20.338;2023-04-09T07:26:29;179.90;1920.00
70593;DHT22;58294;42.988;20.338;2023-04-09T07:28:55;180.00;1945.60
70593;DHT22;58294;42.988;20.338;2023-04-09T07:31:21;180.00;1971.20
70593;DHT22;58294;42.988;20.338;2023-04-09T07:33:47;180.00;1971.20
70593;DHT22;58294;42.988;20.338;2023-04-09T07:36:12;180.10;1945.60
70593;DHT22;58294;42.988;20.338;2023-04-09T07:38:38;180.10;1971.20
70593;DHT22;58294;42.988;20.338;2023-04-09T07:41:04;204.80;1971.20
70593;DHT22;58294;42.988;20.338;2023-04-09T07:43:30;204.80;1920.00
70593;DHT22;58294;42.988;20.338;2023-04-09T07:45:56;204.80;1920.00
70593;DHT22;58294;42.988;20.338;2023-04-09T07:48:22;204.80;1894.40
70593;DHT22;58294;42.988;20.338;2023-04-09T07:50:48;180.10;1920.00
70593;DHT22;58294;42.988;20.338;2023-04-09T07:53:14;180.00;1894.40
70593;DHT22;58294;42.988;20.338;2023-04-09T07:55:40;180.00;1920.00
70593;DHT22;58294;42.988;20.338;2023-04-09T07:58:06;180.00;1945.60
70593;DHT22;58294;42.988;20.338;2023-04-09T08:00:31;180.00;1920.00
70593;DHT22;58294;42.988;20.338;2023-04-09T08:02:58;179.90;1920.00
70593;DHT22;58294;42.988;20.338;2023-04-09T08:05:23;179.90;1945.60
70593;DHT22;58294;42.988;20.338;2023-04-09T08:07:52;179.90;1945.60
70593;DHT22;58294;42.988;20.338;2023-04-09T08:10:18;179.90;1945.60
70593;DHT22;58294;42.988;20.338;2023-04-09T08:12:43;180.00;1945.60
70593;DHT22;58294;42.988;20.338;2023-04-09T08:15:10;180.00;1945.60
70593;DHT22;58294;42.988;20.338;2023-04-09T08:17:36;180.00;1971.20
70593;DHT22;58294;42.988;20.338;2023-04-09T08:20:03;180.00;1971.20
70593;DHT22;58294;42.988;20.338;2023-04-09T08:22:29;180.10;1971.20
70593;DHT22;58294;42.988;20.338;2023-04-09T08:24:55;180.10;1971.20
70593;DHT22;58294;42.988;20.338;2023-04-09T08:27:22;180.10;1945.60
70593;DHT22;58294;42.988;20.338;2023-04-09T08:29:48;180.10;1945.60
70593;DHT22;58294;42.988;20.338;2023-04-09T08:32:14;204.80;1996.80
70593;DHT22;58294;42.988;20.338;2023-04-09T08:34:40;204.80;1971.20
70593;DHT22;58294;42.988;20.338;2023-04-09T08:37:06;204.80;1945.60
70593;DHT22;58294;42.988;20.338;2023-04-09T08:39:32;204.80;1996.80
70593;DHT22;58294;42.988;20.338;2023-04-09T08:41:59;204.90;1996.80
70593;DHT22;58294;42.988;20.338;2023-04-09T08:44:28;205.00;1971.20
70593;DHT22;58294;42.988;20.338;2023-04-09T08:46:54;205.00;1945.60
70593;DHT22;58294;42.988;20.338;2023-04-09T08:49:20;205.00;1945.60
70593;DHT22;58294;42.988;20.338;2023-04-09T08:51:47;204.90;1920.00
70593;DHT22;58294;42.988;20.338;2023-04-09T08:54:16;204.80;1920.00
70593;DHT22;58294;42.988;20.338;2023-04-09T08:56:45;204.80;1945.60
70593;DHT22;58294;42.988;20.338;2023-04-09T08:59:14;204.90;1971.20
70593;DHT22;58294;42.988;20.338;2023-04-09T09:01:40;204.90;1996.80
70593;DHT22;58294;42.988;20.338;2023-04-09T09:04:07;205.00;1971.20
70593;DHT22;58294;42.988;20.338;2023-04-09T09:06:39;205.00;1971.20
70593;DHT22;58294;42.988;20.338;2023-04-09T09:11:35;205.10;1971.20
70593;DHT22;58294;42.988;20.338;2023-04-09T09:14:09;205.10;2022.40
70593;DHT22;58294;42.988;20.338;2023-04-09T09:16:37;205.30;2022.40
70593;DHT22;58294;42.988;20.338;2023-04-09T09:19:26;205.30;2022.40
70593;DHT22;58294;42.988;20.338;2023-04-09T09:22:00;205.40;1996.80
70593;DHT22;58294;42.988;20.338;2023-04-09T09:24:26;205.50;2022.40
70593;DHT22;58294;42.988;20.338;2023-04-09T09:26:52;205.60;2022.40
70593;DHT22;58294;42.988;20.338;2023-04-09T09:29:25;205.70;2022.40
70593;DHT22;58294;42.988;20.338;2023-04-09T09:31:54;205.70;1996.80
70593;DHT22;58294;42.988;20.338;2023-04-09T09:34:22;230.40;1996.80
70593;DHT22;58294;42.988;20.338;2023-04-09T09:36:48;230.50;1996.80
70593;DHT22;58294;42.988;20.338;2023-04-09T09:39:15;230.60;2022.40
70593;DHT22;58294;42.988;20.338;2023-04-09T09:41:42;230.80;2150.40
70593;DHT22;58294;42.988;20.338;2023-04-09T09:44:10;231.10;2201.60
70593;DHT22;58294;42.988;20.338;2023-04-09T09:46:40;256.00;2150.40
70593;DHT22;58294;42.988;20.338;2023-04-09T09:49:07;256.20;2099.20
70593;DHT22;58294;42.988;20.338;2023-04-09T09:51:38;256.40;2022.40
70593;DHT22;58294;42.988;20.338;2023-04-09T09:54:06;256.50;2022.40
70593;DHT22;58294;42.988;20.338;2023-04-09T09:56:37;256.70;2048.00
70593;DHT22;58294;42.988;20.338;2023-04-09T09:59:19;256.90;2022.40
70593;DHT22;58294;42.988;20.338;2023-04-09T10:01:54;281.90;1971.20
70593;DHT22;58294;42.988;20.338;2023-04-09T10:04:23;281.90;1996.80
70593;DHT22;58294;42.988;20.338;2023-04-09T10:21:49;256.90;1792.00
70593;DHT22;58294;42.988;20.338;2023-04-09T10:24:18;256.60;1817.60
70593;DHT22;58294;42.988;20.338;2023-04-09T10:26:45;256.60;1920.00
70593;DHT22;58294;42.988;20.338;2023-04-09T10:29:13;256.80;1945.60
70593;DHT22;58294;42.988;20.338;2023-04-09T10:31:52;256.90;1945.60
70593;DHT22;58294;42.988;20.338;2023-04-09T10:34:20;256.90;1817.60
70593;DHT22;58294;42.988;20.338;2023-04-09T10:36:55;256.80;1817.60
70593;DHT22;58294;42.988;20.338;2023-04-09T10:39:31;256.60;1792.00
70593;DHT22;58294;42.988;20.338;2023-04-09T10:41:59;256.50;1792.00
70593;DHT22;58294;42.988;20.338;2023-04-09T10:44:28;256.40;1868.80
70593;DHT22;58294;42.988;20.338;2023-04-09T10:47:00;256.40;1843.20
70593;DHT22;58294;42.988;20.338;2023-04-09T10:49:38;256.50;1868.80
70593;DHT22;58294;42.988;20.338;2023-04-09T10:52:08;256.40;1817.60
70593;DHT22;58294;42.988;20.338;2023-04-09T10:54:36;256.20;1843.20
70593;DHT22;58294;42.988;20.338;2023-04-09T10:59:49;256.30;1920.00
70593;DHT22;58294;42.988;20.338;2023-04-09T11:03:09;256.40;1945.60
70593;DHT22;58294;42.988;20.338;2023-04-09T11:05:34;256.70;1996.80
70593;DHT22;58294;42.988;20.338;2023-04-09T11:10:26;256.90;1894.40
70593;DHT22;58294;42.988;20.338;2023-04-09T11:12:52;256.80;1894.40
70593;DHT22;58294;42.988;20.338;2023-04-09T11:15:19;256.80;1945.60
70593;DHT22;58294;42.988;20.338;2023-04-09T11:17:46;281.60;1945.60
70593;DHT22;58294;42.988;20.338;2023-04-09T11:20:13;281.80;1996.80
70593;DHT22;58294;42.988;20.338;2023-04-09T11:25:06;282.10;1843.20
70593;DHT22;58294;42.988;20.338;2023-04-09T11:27:42;282.00;1894.40
70593;DHT22;58294;42.988;20.338;2023-04-09T11:30:09;281.80;1843.20
70593;DHT22;58294;42.988;20.338;2023-04-09T11:32:34;281.80;1868.80
70593;DHT22;58294;42.988;20.338;2023-04-09T11:35:00;281.80;1868.80
70593;DHT22;58294;42.988;20.338;2023-04-09T11:37:27;281.70;1843.20
70593;DHT22;58294;42.988;20.338;2023-04-09T11:39:53;281.70;1894.40
70593;DHT22;58294;42.988;20.338;2023-04-09T11:42:20;281.70;1868.80
70593;DHT22;58294;42.988;20.338;2023-04-09T11:44:51;281.60;1843.20
70593;DHT22;58294;42.988;20.338;2023-04-09T11:47:17;281.60;1868.80
70593;DHT22;58294;42.988;20.338;2023-04-09T11:49:44;281.60;1894.40
70593;DHT22;58294;42.988;20.338;2023-04-09T11:52:12;281.60;1894.40
70593;DHT22;58294;42.988;20.338;2023-04-09T11:54:38;281.70;1920.00
70593;DHT22;58294;42.988;20.338;2023-04-09T11:57:04;281.70;1868.80
70593;DHT22;58294;42.988;20.338;2023-04-09T11:59:31;281.60;1843.20
70593;DHT22;58294;42.988;20.338;2023-04-09T12:01:57;256.90;1792.00
70593;DHT22;58294;42.988;20.338;2023-04-09T12:04:23;256.60;1766.40
70593;DHT22;58294;42.988;20.338;2023-04-09T12:06:49;256.40;1792.00
70593;DHT22;58294;42.988;20.338;2023-04-09T12:09:16;256.30;1843.20
70593;DHT22;58294;42.988;20.338;2023-04-09T12:11:43;256.30;1843.20
70593;DHT22;58294;42.988;20.338;2023-04-09T12:14:13;256.30;1894.40
70593;DHT22;58294;42.988;20.338;2023-04-09T12:16:40;256.30;1894.40
70593;DHT22;58294;42.988;20.338;2023-04-09T12:19:10;256.40;1920.00
70593;DHT22;58294;42.988;20.338;2023-04-09T12:21:52;256.30;1868.80
70593;DHT22;58294;42.988;20.338;2023-04-09T12:24:22;256.40;1894.40
70593;DHT22;58294;42.988;20.338;2023-04-09T12:26:49;256.50;1894.40
70593;DHT22;58294;42.988;20.338;2023-04-09T12:29:17;256.30;1817.60
70593;DHT22;58294;42.988;20.338;2023-04-09T12:31:44;256.10;1817.60
70593;DHT22;58294;42.988;20.338;2023-04-09T12:34:10;256.00;1868.80
70593;DHT22;58294;42.988;20.338;2023-04-09T12:36:38;256.10;1920.00
70593;DHT22;58294;42.988;20.338;2023-04-09T12:39:04;256.10;1894.40
70593;DHT22;58294;42.988;20.338;2023-04-09T12:41:30;256.10;1894.40
70593;DHT22;58294;42.988;20.338;2023-04-09T12:43:56;256.10;1894.40
70593;DHT22;58294;42.988;20.338;2023-04-09T12:46:22;256.10;1868.80
70593;DHT22;58294;42.988;20.338;2023-04-09T12:48:48;256.10;1868.80
70593;DHT22;58294;42.988;20.338;2023-04-09T12:51:14;256.00;1843.20
70593;DHT22;58294;42.988;20.338;2023-04-09T12:53:40;231.30;1868.80
70593;DHT22;58294;42.988;20.338;2023-04-09T12:56:06;231.30;1868.80
70593;DHT22;58294;42.988;20.338;2023-04-09T12:58:32;231.20;1894.40
70593;DHT22;58294;42.988;20.338;2023-04-09T13:00:58;231.20;1868.80
70593;DHT22;58294;42.988;20.338;2023-04-09T13:03:24;231.10;1843.20
70593;DHT22;58294;42.988;20.338;2023-04-09T13:05:50;231.00;1894.40
